PWSweather.com
Personal Weather Stations
Station Observations
IMAZOWIE6
WarszawaPL

WarszawaPL

Lat: 52.27957, Lon: 21.05489

Elevation: 100

Station Type: WS1080

http://stacjapogody.waw.pl/

High Low Average
Temperature 39.4°F4.1°C 32.9°F0.5°C 35.4°F1.9°C
Dew Point 14.3°F-9.8°C -169.5°F-111.9°C -66.8°F-54.9°C
Winds 4.0 mph 6.4 kmh Calm Calm 1.0 mph N1.6 kmh N
Wind Gusts 8.8 mph14.2 kmh -- 3.0 mph4.8 kmh
Humidity 44% 10% 20%
Pressure 29.22 in989.5 mb 28.72 in972.6 mb -
Precipitation 0.00 in0.0 mm - -
Hour Temp Dew Point Humidity Winds Wind Gusts Pressure Precip Precip Rate Daily Precip Total
12:01 AM 34.3°F1.3°C -11.5°F-24.2°C 13% Calm Calm 2.0 mph3.2 kmh 29.06 in984.1 mb 0.00 in0.0 mm 0.00 in0.0 mm 0.00 in0.0 mm
12:16 AM 34.2°F1.2°C -11.7°F-24.3°C 13% Calm Calm -- 29.06 in984.1 mb 0.00 in0.0 mm 0.00 in0.0 mm 0.00 in0.0 mm
12:31 AM 34.0°F1.1°C -11.8°F-24.3°C 13% Calm Calm -- 29.07 in984.4 mb 0.00 in0.0 mm 0.00 in0.0 mm 0.00 in0.0 mm
12:46 AM 34.0°F1.1°C -11.8°F-24.3°C 13% Calm Calm 1.4 mph2.3 kmh 29.08 in984.8 mb 0.00 in0.0 mm 0.00 in0.0 mm 0.00 in0.0 mm
01:01 AM 34.2°F1.2°C -11.7°F-24.3°C 13% Calm Calm 1.4 mph2.3 kmh 29.08 in984.8 mb 0.00 in0.0 mm 0.00 in0.0 mm 0.00 in0.0 mm
01:16 AM 34.2°F1.2°C -11.7°F-24.3°C 13% Calm Calm -- 29.08 in984.8 mb 0.00 in0.0 mm 0.00 in0.0 mm 0.00 in0.0 mm
01:31 AM 34.3°F1.3°C -11.5°F-24.2°C 13% Calm Calm 2.0 mph3.2 kmh 29.09 in985.1 mb 0.00 in0.0 mm 0.00 in0.0 mm 0.00 in0.0 mm
01:46 AM 33.6°F0.9°C -12.1°F-24.5°C 13% Calm Calm 2.0 mph3.2 kmh 29.10 in985.4 mb 0.00 in0.0 mm 0.00 in0.0 mm 0.00 in0.0 mm
02:01 AM 33.4°F0.8°C -13.8°F-25.4°C 12% Calm Calm -- 29.10 in985.4 mb 0.00 in0.0 mm 0.00 in0.0 mm 0.00 in0.0 mm
02:16 AM 33.6°F0.9°C -12.1°F-24.5°C 13% Calm Calm 0.6 mph1.0 kmh 29.11 in985.8 mb 0.00 in0.0 mm 0.00 in0.0 mm 0.00 in0.0 mm
02:31 AM 34.0°F1.1°C -11.8°F-24.3°C 13% Calm Calm -- 29.11 in985.8 mb 0.00 in0.0 mm 0.00 in0.0 mm 0.00 in0.0 mm
02:46 AM 34.3°F1.3°C -11.5°F-24.2°C 13% Calm Calm 0.6 mph1.0 kmh 29.12 in986.1 mb 0.00 in0.0 mm 0.00 in0.0 mm 0.00 in0.0 mm
03:01 AM 34.3°F1.3°C -11.5°F-24.2°C 13% Calm Calm 1.4 mph2.3 kmh 29.12 in986.1 mb 0.00 in0.0 mm 0.00 in0.0 mm 0.00 in0.0 mm
03:16 AM 34.5°F1.4°C -11.4°F-24.1°C 13% Calm Calm -- 29.12 in986.1 mb 0.00 in0.0 mm 0.00 in0.0 mm 0.00 in0.0 mm
03:31 AM 34.7°F1.5°C -11.2°F-24.0°C 13% Calm Calm 2.0 mph3.2 kmh 29.13 in986.5 mb 0.00 in0.0 mm 0.00 in0.0 mm 0.00 in0.0 mm
03:46 AM 34.7°F1.5°C -11.2°F-24.0°C 13% Calm Calm 0.6 mph1.0 kmh 29.13 in986.5 mb 0.00 in0.0 mm 0.00 in0.0 mm 0.00 in0.0 mm
04:01 AM 34.7°F1.5°C -11.2°F-24.0°C 13% Calm Calm 0.6 mph1.0 kmh 29.13 in986.5 mb 0.00 in0.0 mm 0.00 in0.0 mm 0.00 in0.0 mm
04:16 AM 34.9°F1.6°C -11.1°F-23.9°C 13% Calm Calm -- 29.14 in986.8 mb 0.00 in0.0 mm 0.00 in0.0 mm 0.00 in0.0 mm
04:31 AM 34.7°F1.5°C -11.2°F-24.0°C 13% Calm Calm 0.6 mph1.0 kmh 29.14 in986.8 mb 0.00 in0.0 mm 0.00 in0.0 mm 0.00 in0.0 mm
04:46 AM 34.7°F1.5°C -11.2°F-24.0°C 13% Calm Calm -- 29.15 in987.1 mb 0.00 in0.0 mm 0.00 in0.0 mm 0.00 in0.0 mm
05:01 AM 34.7°F1.5°C -11.2°F-24.0°C 13% Calm Calm 2.8 mph4.5 kmh 29.15 in987.1 mb 0.00 in0.0 mm 0.00 in0.0 mm 0.00 in0.0 mm
05:16 AM 34.5°F1.4°C -11.4°F-24.1°C 13% Calm Calm -- 29.16 in987.5 mb 0.00 in0.0 mm 0.00 in0.0 mm 0.00 in0.0 mm
05:31 AM 34.5°F1.4°C -11.4°F-24.1°C 13% Calm Calm -- 29.16 in987.5 mb 0.00 in0.0 mm 0.00 in0.0 mm 0.00 in0.0 mm
05:46 AM 34.5°F1.4°C -11.4°F-24.1°C 13% Calm Calm 2.0 mph3.2 kmh 29.17 in987.8 mb 0.00 in0.0 mm 0.00 in0.0 mm 0.00 in0.0 mm
06:01 AM 34.7°F1.5°C -11.2°F-24.0°C 13% Calm Calm 2.8 mph4.5 kmh 29.16 in987.5 mb 0.00 in0.0 mm 0.00 in0.0 mm 0.00 in0.0 mm
06:16 AM 34.5°F1.4°C -11.4°F-24.1°C 13% 0.6 mph N1.0 kmh N 4.0 mph6.4 kmh 29.17 in987.8 mb 0.00 in0.0 mm 0.00 in0.0 mm 0.00 in0.0 mm
06:31 AM 34.7°F1.5°C -12.8°F-24.9°C 12% Calm Calm -- 29.18 in988.1 mb 0.00 in0.0 mm 0.00 in0.0 mm 0.00 in0.0 mm
06:46 AM 34.5°F1.4°C -12.9°F-24.9°C 12% Calm Calm 1.4 mph2.3 kmh 29.18 in988.1 mb 0.00 in0.0 mm 0.00 in0.0 mm 0.00 in0.0 mm
07:01 AM 34.5°F1.4°C -12.9°F-24.9°C 12% Calm Calm 0.6 mph1.0 kmh 29.18 in988.1 mb 0.00 in0.0 mm 0.00 in0.0 mm 0.00 in0.0 mm
07:16 AM 34.5°F1.4°C -12.9°F-24.9°C 12% Calm Calm -- 29.18 in988.1 mb 0.00 in0.0 mm 0.00 in0.0 mm 0.00 in0.0 mm
07:31 AM 34.5°F1.4°C -12.9°F-24.9°C 12% Calm Calm 0.6 mph1.0 kmh 29.19 in988.5 mb 0.00 in0.0 mm 0.00 in0.0 mm 0.00 in0.0 mm
07:47 AM 34.5°F1.4°C -12.9°F-24.9°C 12% 0.6 mph N1.0 kmh N 4.0 mph6.4 kmh 29.19 in988.5 mb 0.00 in0.0 mm 0.00 in0.0 mm 0.00 in0.0 mm
08:03 AM 34.7°F1.5°C -12.8°F-24.9°C 12% Calm Calm -- 29.20 in988.8 mb 0.00 in0.0 mm 0.00 in0.0 mm 0.00 in0.0 mm
08:18 AM 34.9°F1.6°C -12.7°F-24.8°C 12% Calm Calm 3.4 mph5.5 kmh 29.20 in988.8 mb 0.00 in0.0 mm 0.00 in0.0 mm 0.00 in0.0 mm
08:33 AM 34.9°F1.6°C -12.7°F-24.8°C 12% Calm Calm 1.4 mph2.3 kmh 29.21 in989.2 mb 0.00 in0.0 mm 0.00 in0.0 mm 0.00 in0.0 mm
08:49 AM 35.4°F1.9°C -12.2°F-24.6°C 12% Calm Calm 2.8 mph4.5 kmh 29.21 in989.2 mb 0.00 in0.0 mm 0.00 in0.0 mm 0.00 in0.0 mm
09:05 AM 35.4°F1.9°C -12.2°F-24.6°C 12% Calm Calm 0.6 mph1.0 kmh 29.21 in989.2 mb 0.00 in0.0 mm 0.00 in0.0 mm 0.00 in0.0 mm
09:16 AM 35.6°F2.0°C -13.8°F-25.4°C 11% Calm Calm 2.0 mph3.2 kmh 29.21 in989.2 mb 0.00 in0.0 mm 0.00 in0.0 mm 0.00 in0.0 mm
09:32 AM 36.1°F2.3°C -13.4°F-25.2°C 11% Calm Calm -- 29.21 in989.2 mb 0.00 in0.0 mm 0.00 in0.0 mm 0.00 in0.0 mm
09:48 AM 36.5°F2.5°C -13.1°F-25.1°C 11% Calm Calm 4.0 mph6.4 kmh 29.21 in989.2 mb 0.00 in0.0 mm 0.00 in0.0 mm 0.00 in0.0 mm
10:04 AM 36.7°F2.6°C -14.8°F-26.0°C 10% Calm Calm 2.0 mph3.2 kmh 29.22 in989.5 mb 0.00 in0.0 mm 0.00 in0.0 mm 0.00 in0.0 mm
10:20 AM 37.2°F2.9°C -169.1°F-111.7°C - Calm Calm 1.4 mph2.3 kmh 29.22 in989.5 mb 0.00 in0.0 mm 0.00 in0.0 mm 0.00 in0.0 mm
10:31 AM 37.4°F3.0°C -169.1°F-111.7°C - Calm Calm 0.6 mph1.0 kmh 29.21 in989.2 mb 0.00 in0.0 mm 0.00 in0.0 mm 0.00 in0.0 mm
10:47 AM 37.8°F3.2°C -169.0°F-111.7°C - Calm Calm -- 29.20 in988.8 mb 0.00 in0.0 mm 0.00 in0.0 mm 0.00 in0.0 mm
11:03 AM 38.1°F3.4°C -169.0°F-111.7°C - Calm Calm 2.0 mph3.2 kmh 29.20 in988.8 mb 0.00 in0.0 mm 0.00 in0.0 mm 0.00 in0.0 mm
11:19 AM 38.7°F3.7°C -168.9°F-111.6°C - Calm Calm -- 29.20 in988.8 mb 0.00 in0.0 mm 0.00 in0.0 mm 0.00 in0.0 mm
11:35 AM 38.3°F3.5°C -169.0°F-111.7°C - Calm Calm -- 29.19 in988.5 mb 0.00 in0.0 mm 0.00 in0.0 mm 0.00 in0.0 mm
11:51 AM 38.5°F3.6°C -169.0°F-111.7°C - Calm Calm -- 29.18 in988.1 mb 0.00 in0.0 mm 0.00 in0.0 mm 0.00 in0.0 mm
12:01 PM 38.8°F3.8°C -168.9°F-111.6°C - Calm Calm -- 29.18 in988.1 mb 0.00 in0.0 mm 0.00 in0.0 mm 0.00 in0.0 mm
12:17 PM 38.8°F3.8°C -168.9°F-111.6°C - 2.0 mph N3.2 kmh N 4.8 mph7.7 kmh 29.17 in987.8 mb 0.00 in0.0 mm 0.00 in0.0 mm 0.00 in0.0 mm
12:33 PM 38.8°F3.8°C -168.9°F-111.6°C - 1.4 mph N2.3 kmh N 4.8 mph7.7 kmh 29.16 in987.5 mb 0.00 in0.0 mm 0.00 in0.0 mm 0.00 in0.0 mm
12:49 PM 38.8°F3.8°C -168.9°F-111.6°C - 2.0 mph N3.2 kmh N 4.8 mph7.7 kmh 29.15 in987.1 mb 0.00 in0.0 mm 0.00 in0.0 mm 0.00 in0.0 mm
01:05 PM 39.0°F3.9°C -168.9°F-111.6°C - 2.8 mph N4.5 kmh N 5.4 mph8.7 kmh 29.15 in987.1 mb 0.00 in0.0 mm 0.00 in0.0 mm 0.00 in0.0 mm
01:16 PM 39.4°F4.1°C -168.9°F-111.6°C - 2.8 mph N4.5 kmh N 4.8 mph7.7 kmh 29.13 in986.5 mb 0.00 in0.0 mm 0.00 in0.0 mm 0.00 in0.0 mm
01:32 PM 39.0°F3.9°C -168.9°F-111.6°C - 2.8 mph N4.5 kmh N 8.2 mph13.2 kmh 29.13 in986.5 mb 0.00 in0.0 mm 0.00 in0.0 mm 0.00 in0.0 mm
01:48 PM 38.3°F3.5°C -169.0°F-111.7°C - 2.0 mph N3.2 kmh N 5.4 mph8.7 kmh 29.12 in986.1 mb 0.00 in0.0 mm 0.00 in0.0 mm 0.00 in0.0 mm
02:04 PM 38.7°F3.7°C -168.9°F-111.6°C - 3.4 mph N5.5 kmh N 5.4 mph8.7 kmh 29.11 in985.8 mb 0.00 in0.0 mm 0.00 in0.0 mm 0.00 in0.0 mm
02:20 PM 38.8°F3.8°C -168.9°F-111.6°C - 3.4 mph N5.5 kmh N 6.2 mph10.0 kmh 29.11 in985.8 mb 0.00 in0.0 mm 0.00 in0.0 mm 0.00 in0.0 mm
02:31 PM 38.1°F3.4°C -169.0°F-111.7°C - Calm Calm 2.0 mph3.2 kmh 29.09 in985.1 mb 0.00 in0.0 mm 0.00 in0.0 mm 0.00 in0.0 mm
02:47 PM 37.6°F3.1°C -169.0°F-111.7°C - 0.6 mph N1.0 kmh N 5.4 mph8.7 kmh 29.07 in984.4 mb 0.00 in0.0 mm 0.00 in0.0 mm 0.00 in0.0 mm
03:02 PM 37.0°F2.8°C -169.1°F-111.7°C - Calm Calm -- 29.06 in984.1 mb 0.00 in0.0 mm 0.00 in0.0 mm 0.00 in0.0 mm
03:17 PM 37.0°F2.8°C -169.1°F-111.7°C - 0.6 mph N1.0 kmh N 4.0 mph6.4 kmh 29.06 in984.1 mb 0.00 in0.0 mm 0.00 in0.0 mm 0.00 in0.0 mm
03:32 PM 36.5°F2.5°C -169.2°F-111.8°C - 0.6 mph N1.0 kmh N 5.4 mph8.7 kmh 29.05 in983.7 mb 0.00 in0.0 mm 0.00 in0.0 mm 0.00 in0.0 mm
03:47 PM 36.3°F2.4°C -169.2°F-111.8°C - 1.4 mph N2.3 kmh N 5.4 mph8.7 kmh 29.04 in983.4 mb 0.00 in0.0 mm 0.00 in0.0 mm 0.00 in0.0 mm
04:02 PM 36.1°F2.3°C -169.2°F-111.8°C - Calm Calm 4.0 mph6.4 kmh 29.03 in983.1 mb 0.00 in0.0 mm 0.00 in0.0 mm 0.00 in0.0 mm
04:17 PM 36.3°F2.4°C -169.2°F-111.8°C - Calm Calm -- 29.03 in983.1 mb 0.00 in0.0 mm 0.00 in0.0 mm 0.00 in0.0 mm
04:32 PM 36.3°F2.4°C -169.2°F-111.8°C - 0.6 mph N1.0 kmh N 2.0 mph3.2 kmh 29.02 in982.7 mb 0.00 in0.0 mm 0.00 in0.0 mm 0.00 in0.0 mm
04:47 PM 36.1°F2.3°C -169.2°F-111.8°C - 1.4 mph N2.3 kmh N 6.2 mph10.0 kmh 29.00 in982.1 mb 0.00 in0.0 mm 0.00 in0.0 mm 0.00 in0.0 mm
05:02 PM 36.0°F2.2°C -169.2°F-111.8°C - 0.6 mph N1.0 kmh N 4.8 mph7.7 kmh 28.99 in981.7 mb 0.00 in0.0 mm 0.00 in0.0 mm 0.00 in0.0 mm
05:17 PM 36.1°F2.3°C -169.2°F-111.8°C - 1.4 mph N2.3 kmh N 6.8 mph10.9 kmh 28.98 in981.4 mb 0.00 in0.0 mm 0.00 in0.0 mm 0.00 in0.0 mm
05:32 PM 36.0°F2.2°C -169.2°F-111.8°C - 2.0 mph N3.2 kmh N 4.8 mph7.7 kmh 28.96 in980.7 mb 0.00 in0.0 mm 0.00 in0.0 mm 0.00 in0.0 mm
05:47 PM 36.0°F2.2°C -169.2°F-111.8°C - 0.6 mph N1.0 kmh N 3.4 mph5.5 kmh 28.94 in980.0 mb 0.00 in0.0 mm 0.00 in0.0 mm 0.00 in0.0 mm
06:02 PM 36.1°F2.3°C -169.2°F-111.8°C - 2.8 mph N4.5 kmh N 7.4 mph11.9 kmh 28.92 in979.3 mb 0.00 in0.0 mm 0.00 in0.0 mm 0.00 in0.0 mm
06:17 PM 36.0°F2.2°C -169.2°F-111.8°C - 3.4 mph N5.5 kmh N 8.2 mph13.2 kmh 28.91 in979.0 mb 0.00 in0.0 mm 0.00 in0.0 mm 0.00 in0.0 mm
06:32 PM 34.5°F1.4°C -169.3°F-111.8°C - 2.8 mph N4.5 kmh N 5.4 mph8.7 kmh 28.89 in978.3 mb 0.00 in0.0 mm 0.00 in0.0 mm 0.00 in0.0 mm
06:47 PM 33.4°F0.8°C -169.5°F-111.9°C - 2.0 mph N3.2 kmh N 4.0 mph6.4 kmh 28.88 in978.0 mb 0.00 in0.0 mm 0.00 in0.0 mm 0.00 in0.0 mm
07:02 PM 33.4°F0.8°C -169.5°F-111.9°C - 2.8 mph N4.5 kmh N 6.2 mph10.0 kmh 28.86 in977.3 mb 0.00 in0.0 mm 0.00 in0.0 mm 0.00 in0.0 mm
07:17 PM 33.3°F0.7°C -8.2°F-22.3°C 16% 2.8 mph N4.5 kmh N 6.8 mph10.9 kmh 28.84 in976.6 mb 0.00 in0.0 mm 0.00 in0.0 mm 0.00 in0.0 mm
07:32 PM 33.3°F0.7°C -2.7°F-19.3°C 21% 2.0 mph N3.2 kmh N 5.4 mph8.7 kmh 28.82 in976.0 mb 0.00 in0.0 mm 0.00 in0.0 mm 0.00 in0.0 mm
07:47 PM 33.1°F0.6°C 0.9°F-17.3°C 25% 3.4 mph N5.5 kmh N 7.4 mph11.9 kmh 28.82 in976.0 mb 0.00 in0.0 mm 0.00 in0.0 mm 0.00 in0.0 mm
08:02 PM 33.1°F0.6°C 4.0°F-15.6°C 29% 3.4 mph N5.5 kmh N 7.4 mph11.9 kmh 28.81 in975.6 mb 0.00 in0.0 mm 0.00 in0.0 mm 0.00 in0.0 mm
08:17 PM 32.9°F0.5°C 5.3°F-14.8°C 31% 2.8 mph N4.5 kmh N 5.4 mph8.7 kmh 28.80 in975.3 mb 0.00 in0.0 mm 0.00 in0.0 mm 0.00 in0.0 mm
08:32 PM 33.1°F0.6°C 7.5°F-13.6°C 34% 4.0 mph N6.4 kmh N 8.8 mph14.2 kmh 28.78 in974.6 mb 0.00 in0.0 mm 0.00 in0.0 mm 0.00 in0.0 mm
08:47 PM 33.1°F0.6°C 8.8°F-12.9°C 36% 1.4 mph N2.3 kmh N 4.0 mph6.4 kmh 28.77 in974.3 mb 0.00 in0.0 mm 0.00 in0.0 mm 0.00 in0.0 mm
09:02 PM 32.9°F0.5°C 9.2°F-12.7°C 37% 0.6 mph N1.0 kmh N 3.4 mph5.5 kmh 28.77 in974.3 mb 0.00 in0.0 mm 0.00 in0.0 mm 0.00 in0.0 mm
09:17 PM 33.1°F0.6°C 10.6°F-11.9°C 39% Calm Calm 3.4 mph5.5 kmh 28.76 in973.9 mb 0.00 in0.0 mm 0.00 in0.0 mm 0.00 in0.0 mm
09:32 PM 33.4°F0.8°C 11.5°F-11.4°C 40% Calm Calm 0.6 mph1.0 kmh 28.75 in973.6 mb 0.00 in0.0 mm 0.00 in0.0 mm 0.00 in0.0 mm
09:47 PM 33.3°F0.7°C 11.9°F-11.2°C 41% Calm Calm -- 28.74 in973.2 mb 0.00 in0.0 mm 0.00 in0.0 mm 0.00 in0.0 mm
10:02 PM 33.3°F0.7°C 12.4°F-10.9°C 42% Calm Calm 2.8 mph4.5 kmh 28.74 in973.2 mb 0.00 in0.0 mm 0.00 in0.0 mm 0.00 in0.0 mm
10:17 PM 33.3°F0.7°C 12.4°F-10.9°C 42% 2.0 mph N3.2 kmh N 4.8 mph7.7 kmh 28.74 in973.2 mb 0.00 in0.0 mm 0.00 in0.0 mm 0.00 in0.0 mm
10:32 PM 33.4°F0.8°C 13.1°F-10.5°C 43% 2.0 mph N3.2 kmh N 6.8 mph10.9 kmh 28.74 in973.2 mb 0.00 in0.0 mm 0.00 in0.0 mm 0.00 in0.0 mm
10:47 PM 33.6°F0.9°C 13.3°F-10.4°C 43% 2.0 mph N3.2 kmh N 4.0 mph6.4 kmh 28.74 in973.2 mb 0.00 in0.0 mm 0.00 in0.0 mm 0.00 in0.0 mm
11:02 PM 33.8°F1.0°C 13.5°F-10.3°C 43% 1.4 mph N2.3 kmh N 3.4 mph5.5 kmh 28.73 in972.9 mb 0.00 in0.0 mm 0.00 in0.0 mm 0.00 in0.0 mm
11:15 PM 33.8°F1.0°C 13.5°F-10.3°C 43% 1.4 mph N2.3 kmh N 3.4 mph5.5 kmh 28.73 in972.9 mb 0.00 in0.0 mm 0.00 in0.0 mm 0.00 in0.0 mm
11:32 PM 34.0°F1.1°C 14.1°F-9.9°C 44% 2.0 mph N3.2 kmh N 5.4 mph8.7 kmh 28.72 in972.6 mb 0.00 in0.0 mm 0.00 in0.0 mm 0.00 in0.0 mm
11:47 PM 34.2°F1.2°C 14.3°F-9.8°C 44% 2.0 mph N3.2 kmh N 4.8 mph7.7 kmh 28.72 in972.6 mb 0.00 in0.0 mm 0.00 in0.0 mm 0.00 in0.0 mm